Time;durP1;ratioP1;P1;durP2;ratioP2;P2;SDS_P1;SDS_P2;PMS_P1;PMS_P2;Temp;Humidity;BMP_temperature;BMP_pressure;BME280_temperature;BME280_humidity;BME280_pressure;Samples;Min_cycle;Max_cycle;Signal;HPM_P1;HPM_P2
2021/10/28 00:15:06;;;;;;;10.38;4.75;;;14.90;60.10;;;;;;6158743;28;20030;-73
2021/10/28 00:18:13;;;;;;;11.07;5.75;;;14.90;60.10;;;;;;6187744;28;20049;-73
2021/10/28 00:21:15;;;;;;;10.93;5.28;;;14.90;60.10;;;;;;6194586;28;20058;-74
2021/10/28 00:24:16;;;;;;;11.88;5.78;;;14.90;60.10;;;;;;6189535;28;20515;-75
2021/10/28 00:27:18;;;;;;;13.75;6.85;;;14.80;60.20;;;;;;6194644;28;20519;-75
2021/10/28 00:30:19;;;;;;;20.20;7.13;;;14.80;60.30;;;;;;6193008;28;20034;-75
2021/10/28 00:33:20;;;;;;;14.57;6.63;;;14.70;60.40;;;;;;6199337;28;20045;-74
2021/10/28 00:36:21;;;;;;;14.95;6.43;;;14.60;60.50;;;;;;6195045;28;20038;-74
2021/10/28 00:39:22;;;;;;;10.30;5.13;;;14.60;60.80;;;;;;6182998;28;20039;-74
2021/10/28 00:42:23;;;;;;;10.57;4.95;;;14.50;60.80;;;;;;6194778;28;20118;-74
2021/10/28 00:45:27;;;;;;;11.45;5.55;;;14.40;60.90;;;;;;6196244;28;21221;-74
2021/10/28 00:48:28;;;;;;;10.95;5.47;;;14.30;61.20;;;;;;6193711;28;20057;-74
2021/10/28 00:51:32;;;;;;;13.35;5.72;;;14.30;61.50;;;;;;6193821;28;20080;-74
2021/10/28 00:54:33;;;;;;;12.35;5.82;;;14.20;61.70;;;;;;6189559;28;20031;-74
2021/10/28 00:57:34;;;;;;;12.95;5.88;;;14.10;61.80;;;;;;6192401;28;20053;-73
2021/10/28 01:00:35;;;;;;;10.57;5.70;;;14.10;62.10;;;;;;6185666;28;20039;-73
2021/10/28 01:03:40;;;;;;;10.43;5.63;;;14.00;62.20;;;;;;6190155;28;20046;-74
2021/10/28 01:06:41;;;;;;;11.68;5.57;;;14.00;62.50;;;;;;6189470;28;20467;-74
2021/10/28 01:09:43;;;;;;;11.68;4.90;;;13.90;62.70;;;;;;6187672;28;20049;-74
2021/10/28 01:12:44;;;;;;;10.35;4.90;;;13.90;62.90;;;;;;6192485;28;20043;-74
2021/10/28 01:15:47;;;;;;;10.38;5.03;;;13.80;63.00;;;;;;6178564;28;20074;-74
2021/10/28 01:18:48;;;;;;;8.32;4.60;;;13.80;63.20;;;;;;6195128;28;20069;-74
2021/10/28 01:21:49;;;;;;;11.05;4.80;;;13.70;63.30;;;;;;6189332;28;20046;-74
2021/10/28 01:24:50;;;;;;;10.00;5.10;;;13.70;63.50;;;;;;6195105;28;20086;-74
2021/10/28 01:27:51;;;;;;;14.95;5.05;;;13.70;63.60;;;;;;6193569;28;20034;-74
2021/10/28 01:30:58;;;;;;;11.40;5.50;;;13.70;63.70;;;;;;6193875;28;20049;-74
2021/10/28 01:34:01;;;;;;;13.95;5.15;;;13.60;63.80;;;;;;6196697;28;20049;-74
2021/10/28 01:37:02;;;;;;;12.30;6.07;;;13.60;63.80;;;;;;6190136;28;20157;-74
2021/10/28 01:40:04;;;;;;;12.98;5.63;;;13.60;64.70;;;;;;6190518;28;20471;-74
2021/10/28 01:43:05;;;;;;;10.93;6.07;;;13.60;64.00;;;;;;6190111;28;20031;-74
2021/10/28 01:46:06;;;;;;;14.55;6.18;;;13.60;64.00;;;;;;6187812;28;20133;-74
2021/10/28 01:49:07;;;;;;;14.35;5.78;;;13.60;64.00;;;;;;6197561;28;20108;-74
2021/10/28 01:52:12;;;;;;;12.48;5.97;;;13.60;64.10;;;;;;6195656;28;20108;-74
2021/10/28 01:55:14;;;;;;;10.20;5.47;;;13.50;64.10;;;;;;6188394;28;20034;-74
2021/10/28 01:58:17;;;;;;;10.77;5.80;;;13.50;64.20;;;;;;6196913;28;20045;-74
2021/10/28 02:01:18;;;;;;;12.93;5.53;;;13.50;64.30;;;;;;6195908;28;20034;-75
2021/10/28 02:04:19;;;;;;;17.38;6.65;;;13.50;64.40;;;;;;6193151;28;20042;-74
2021/10/28 02:07:20;;;;;;;12.60;6.68;;;13.50;64.50;;;;;;6189263;28;20464;-74
2021/10/28 02:10:22;;;;;;;11.73;5.75;;;13.40;64.50;;;;;;6186767;28;20038;-74
2021/10/28 02:13:22;;;;;;;11.88;6.40;;;13.40;64.50;;;;;;6166939;28;20122;-74
2021/10/28 02:16:28;;;;;;;15.43;5.97;;;13.40;64.60;;;;;;6196968;28;20034;-74
2021/10/28 02:19:29;;;;;;;14.32;6.13;;;13.30;64.50;;;;;;6191614;28;20027;-75
2021/10/28 02:22:31;;;;;;;11.73;5.30;;;13.30;64.70;;;;;;6188123;28;20137;-74
2021/10/28 02:25:32;;;;;;;13.23;5.78;;;13.20;64.70;;;;;;6200653;28;20057;-74
2021/10/28 02:28:33;;;;;;;13.52;6.30;;;13.20;64.80;;;;;;6192790;28;20050;-75
2021/10/28 02:31:35;;;;;;;11.90;5.80;;;13.10;64.90;;;;;;6194407;28;20061;-74
2021/10/28 02:34:37;;;;;;;13.98;5.88;;;13.10;65.10;;;;;;6176847;28;20042;-75
2021/10/28 02:37:38;;;;;;;12.90;6.38;;;13.00;65.20;;;;;;6186471;28;20471;-75
2021/10/28 02:40:39;;;;;;;11.02;5.85;;;13.00;65.30;;;;;;6184829;28;20047;-74
2021/10/28 02:43:41;;;;;;;13.68;5.63;;;13.00;65.40;;;;;;6195185;28;20049;-75
2021/10/28 02:46:42;;;;;;;18.75;6.15;;;13.00;65.40;;;;;;6189497;28;20559;-74
2021/10/28 02:49:43;;;;;;;11.95;5.70;;;13.00;65.20;;;;;;6183360;28;20051;-74
2021/10/28 02:52:44;;;;;;;12.70;5.70;;;13.00;65.20;;;;;;6172299;28;20097;-75
2021/10/28 02:55:47;;;;;;;11.45;5.65;;;13.00;65.30;;;;;;6189391;28;20026;-74
2021/10/28 02:58:48;;;;;;;10.65;5.80;;;12.90;65.30;;;;;;6190983;28;20121;-74
2021/10/28 03:01:51;;;;;;;10.13;5.72;;;12.90;65.40;;;;;;6196294;28;20048;-74
2021/10/28 03:04:52;;;;;;;11.85;5.82;;;12.90;65.40;;;;;;6192403;28;20137;-75
2021/10/28 03:07:54;;;;;;;13.23;5.93;;;12.80;65.50;;;;;;6193672;28;20089;-74
2021/10/28 03:10:55;;;;;;;8.57;5.13;;;12.90;65.50;;;;;;6186123;28;20062;-73
2021/10/28 03:13:56;;;;;;;8.35;4.63;;;12.90;65.40;;;;;;6192825;28;20571;-75
2021/10/28 03:17:08;;;;;;;11.90;4.78;;;12.90;65.30;;;;;;6179970;28;20122;-74
2021/10/28 03:26:35;;;;;;;10.27;5.38;;;12.80;65.70;;;;;;6188472;28;20046;-74
2021/10/28 03:29:36;;;;;;;11.77;5.38;;;12.70;65.70;;;;;;6192634;28;20042;-74
2021/10/28 03:32:37;;;;;;;10.00;5.18;;;12.80;65.80;;;;;;6188826;28;20073;-73
2021/10/28 03:35:39;;;;;;;11.52;5.63;;;12.80;65.80;;;;;;6192685;28;20043;-73
2021/10/28 03:38:52;;;;;;;11.88;5.68;;;12.80;65.80;;;;;;6189957;28;20054;-73
2021/10/28 03:45:33;;;;;;;11.00;5.78;;;12.80;65.80;;;;;;6193451;28;20089;-73
2021/10/28 04:30:46;;;;;;;11.63;4.80;;;12.70;66.30;;;;;;6111105;29;20040;-73
2021/10/28 04:33:47;;;;;;;12.43;5.97;;;12.70;66.20;;;;;;6114342;29;20386;-74
2021/10/28 04:36:48;;;;;;;12.65;5.97;;;12.80;66.20;;;;;;6096145;29;20032;-74
2021/10/28 04:39:49;;;;;;;12.18;5.32;;;12.80;66.10;;;;;;6107911;29;20040;-73
2021/10/28 04:42:50;;;;;;;9.55;5.90;;;12.80;65.90;;;;;;6104251;29;20035;-74
2021/10/28 04:45:51;;;;;;;18.65;7.97;;;12.80;65.70;;;;;;6170670;28;20122;-73
2021/10/28 04:48:51;;;;;;;17.02;8.63;;;12.80;65.80;;;;;;6191264;28;20344;-74
2021/10/28 04:51:53;;;;;;;16.83;8.57;;;12.80;65.80;;;;;;6191712;28;20073;-74
2021/10/28 04:54:54;;;;;;;16.27;7.72;;;12.80;65.80;;;;;;6191677;28;20490;-74
2021/10/28 04:57:54;;;;;;;13.13;6.57;;;12.70;65.70;;;;;;6191163;28;20049;-74
2021/10/28 05:00:56;;;;;;;12.50;6.25;;;12.70;65.70;;;;;;6193639;28;20030;-74
2021/10/28 05:03:57;;;;;;;16.20;6.40;;;12.70;65.70;;;;;;6193266;28;20054;-74
2021/10/28 05:06:59;;;;;;;13.98;6.07;;;12.70;65.80;;;;;;6185023;28;20441;-74
2021/10/28 05:10:00;;;;;;;10.65;6.13;;;12.70;66.00;;;;;;6193256;28;20030;-74
2021/10/28 05:13:01;;;;;;;11.38;5.90;;;12.60;65.90;;;;;;6188011;28;20023;-74
2021/10/28 05:16:02;;;;;;;14.63;6.50;;;12.60;65.90;;;;;;6190697;28;20069;-74
2021/10/28 05:19:03;;;;;;;10.48;5.88;;;12.60;66.00;;;;;;6190308;28;20162;-74
2021/10/28 05:22:06;;;;;;;11.88;6.55;;;12.60;65.90;;;;;;6185730;28;20113;-74
2021/10/28 05:25:07;;;;;;;13.88;6.15;;;12.60;66.00;;;;;;6196063;28;20121;-74
2021/10/28 05:28:10;;;;;;;10.07;6.10;;;12.50;66.00;;;;;;6191750;28;20038;-74
2021/10/28 05:31:12;;;;;;;14.40;6.30;;;12.50;66.10;;;;;;6188542;28;20030;-74
2021/10/28 05:34:13;;;;;;;17.38;6.93;;;12.50;66.10;;;;;;6193939;28;20067;-73
2021/10/28 05:37:16;;;;;;;16.00;6.47;;;12.40;66.00;;;;;;6194982;28;20042;-73
2021/10/28 05:40:17;;;;;;;11.65;5.93;;;12.40;66.10;;;;;;6188771;28;20565;-73
2021/10/28 05:43:18;;;;;;;18.63;6.68;;;12.30;66.10;;;;;;6175845;28;20154;-74
2021/10/28 05:46:19;;;;;;;11.38;6.70;;;12.30;66.30;;;;;;6188290;28;20112;-72
2021/10/28 05:49:21;;;;;;;14.57;6.57;;;12.20;66.30;;;;;;6207300;28;20096;-78
2021/10/28 05:52:24;;;;;;;10.73;6.28;;;12.20;66.30;;;;;;6181033;28;20504;-76
2021/10/28 05:55:25;;;;;;;11.85;5.63;;;12.20;66.50;;;;;;6191074;28;20456;-75
2021/10/28 05:58:26;;;;;;;14.52;6.28;;;12.20;66.50;;;;;;6195131;28;20037;-76
2021/10/28 06:01:27;;;;;;;12.98;6.80;;;12.20;66.60;;;;;;6189198;28;20439;-76
2021/10/28 06:04:28;;;;;;;14.18;5.57;;;12.10;66.50;;;;;;6188548;28;20053;-75
2021/10/28 06:07:33;;;;;;;13.93;5.97;;;12.10;66.50;;;;;;6184313;28;20459;-77
2021/10/28 06:10:37;;;;;;;15.98;5.32;;;12.10;66.50;;;;;;6186118;28;20479;-76
2021/10/28 06:13:43;;;;;;;11.07;5.90;;;12.10;66.60;;;;;;6188128;28;20034;-77
2021/10/28 06:16:51;;;;;;;9.52;5.20;;;12.10;66.70;;;;;;6185831;28;20047;-77
2021/10/28 06:19:59;;;;;;;11.00;5.93;;;12.10;66.70;;;;;;6183236;28;20034;-76
2021/10/28 06:23:00;;;;;;;8.63;4.13;;;12.20;66.80;;;;;;6162900;28;20479;-78
2021/10/28 06:26:04;;;;;;;13.95;6.13;;;12.10;66.60;;;;;;6197640;28;20034;-76
2021/10/28 06:29:05;;;;;;;19.77;5.80;;;12.20;66.60;;;;;;6162129;28;20046;-78
2021/10/28 06:32:06;;;;;;;14.98;5.53;;;12.10;66.50;;;;;;6196695;28;20057;-76
2021/10/28 06:35:07;;;;;;;10.63;5.88;;;12.10;66.50;;;;;;6197872;28;20088;-77
2021/10/28 06:38:09;;;;;;;10.27;5.55;;;12.10;66.50;;;;;;6189114;28;20074;-77
2021/10/28 06:41:10;;;;;;;21.13;6.35;;;12.10;66.60;;;;;;6192806;28;20149;-77
2021/10/28 06:44:11;;;;;;;27.92;6.05;;;12.10;66.60;;;;;;6191282;28;20364;-78
2021/10/28 06:47:12;;;;;;;15.82;6.47;;;12.10;66.70;;;;;;6189787;28;20026;-78
2021/10/28 06:50:16;;;;;;;12.25;5.82;;;12.10;66.70;;;;;;6194261;28;20054;-77
2021/10/28 06:53:22;;;;;;;20.63;6.97;;;12.10;66.80;;;;;;6193606;28;20180;-77
2021/10/28 07:03:16;;;;;;;12.82;6.43;;;12.20;66.30;;;;;;6123304;29;20035;-76
2021/10/28 07:06:22;;;;;;;20.50;6.07;;;12.20;66.10;;;;;;6126228;29;20559;-77
2021/10/28 07:09:32;;;;;;;13.10;5.78;;;12.30;66.10;;;;;;6108361;29;20054;-77
2021/10/28 07:15:43;;;;;;;11.90;6.13;;;12.30;66.10;;;;;;6123935;29;20427;-77
2021/10/28 07:22:16;;;;;;;16.30;6.40;;;12.30;66.10;;;;;;6125792;29;20167;-78
2021/10/28 07:25:25;;;;;;;13.55;6.43;;;12.40;66.00;;;;;;6123236;29;20044;-79
2021/10/28 08:31:20;;;;;;;12.35;6.72;;;14.00;62.70;;;;;;6101849;29;20050;-78
2021/10/28 08:34:36;;;;;;;21.55;6.18;;;14.00;62.40;;;;;;6097182;29;20035;-77
2021/10/28 08:37:58;;;;;;;18.80;6.90;;;14.00;62.40;;;;;;6084712;29;20047;-78
2021/10/28 08:40:59;;;;;;;13.13;6.15;;;14.00;62.50;;;;;;6077697;29;20044;-78
2021/10/28 08:44:02;;;;;;;17.98;6.22;;;14.20;62.40;;;;;;6105120;28;20558;-78
2021/10/28 08:47:03;;;;;;;13.35;5.80;;;14.20;62.30;;;;;;6146918;28;20047;-76
2021/10/28 08:50:11;;;;;;;12.00;5.85;;;14.30;62.20;;;;;;6143049;28;20433;-77
2021/10/28 08:56:30;;;;;;;24.27;9.20;;;14.60;61.60;;;;;;6164988;28;20126;-78
2021/10/28 09:30:39;;;;;;;19.15;8.95;;;15.30;59.50;;;;;;6098106;29;20051;-78
2021/10/28 09:34:03;;;;;;;18.65;6.28;;;15.40;58.80;;;;;;6096108;29;20107;-80
2021/10/28 09:50:52;;;;;;;13.55;5.50;;;15.80;57.50;;;;;;6035062;29;20127;-79
2021/10/28 10:04:43;;;;;;;15.70;7.10;;;16.60;55.60;;;;;;6053969;29;20045;-77
2021/10/28 10:07:51;;;;;;;11.23;4.97;;;16.80;54.70;;;;;;6131309;28;20031;-79
2021/10/28 10:10:53;;;;;;;13.80;6.32;;;17.10;54.80;;;;;;6128872;28;20035;-76
2021/10/28 10:13:56;;;;;;;12.40;5.63;;;17.30;54.40;;;;;;6151419;28;20477;-78
2021/10/28 10:16:57;;;;;;;8.32;4.45;;;17.60;54.20;;;;;;6119048;29;20039;-77
2021/10/28 10:20:00;;;;;;;11.32;4.18;;;17.90;53.30;;;;;;6130506;28;20062;-78
2021/10/28 11:04:20;;;;;;;30.15;12.63;;;21.10;46.20;;;;;;6106748;29;20051;-77
2021/10/28 11:28:03;;;;;;;10.15;5.07;;;23.30;40.90;;;;;;6107428;28;20046;-78
2021/10/28 12:45:59;;;;;;;6.97;3.25;;;22.00;39.60;;;;;;6146616;29;20039;-78
2021/10/28 12:52:38;;;;;;;17.88;3.75;;;21.80;40.20;;;;;;6141918;28;20036;-79
2021/10/28 13:55:43;;;;;;;9.52;4.03;;;21.60;41.10;;;;;;6140364;28;20215;-77
2021/10/28 15:28:05;;;;;;;7.88;2.50;;;20.50;43.00;;;;;;6188926;28;20045;-77
2021/10/28 15:34:45;;;;;;;5.47;2.75;;;20.40;43.20;;;;;;6179477;28;20441;-77
2021/10/28 15:37:58;;;;;;;6.82;2.53;;;20.40;43.40;;;;;;6188888;28;20433;-77
2021/10/28 16:23:40;;;;;;;9.00;2.92;;;19.50;46.10;;;;;;6115740;28;20027;-78
2021/10/28 16:26:41;;;;;;;8.10;3.28;;;19.40;46.30;;;;;;6137725;28;20126;-76
2021/10/28 16:29:42;;;;;;;13.07;3.58;;;19.40;46.40;;;;;;6122307;28;20039;-77
2021/10/28 16:32:44;;;;;;;12.00;3.58;;;19.30;46.50;;;;;;6126401;28;20046;-78
2021/10/28 16:35:46;;;;;;;13.73;5.05;;;19.30;46.50;;;;;;6127815;28;20035;-77
2021/10/28 16:38:47;;;;;;;8.88;4.20;;;19.30;46.70;;;;;;6133878;28;20050;-75
2021/10/28 16:41:52;;;;;;;6.60;3.65;;;19.20;46.70;;;;;;6112026;29;20135;-77
2021/10/28 16:44:53;;;;;;;10.75;3.78;;;19.20;47.00;;;;;;6141010;28;20634;-77
2021/10/28 16:47:55;;;;;;;14.98;4.07;;;19.20;47.20;;;;;;6137581;28;20043;-77
2021/10/28 16:50:56;;;;;;;11.20;4.43;;;19.00;47.40;;;;;;6122828;28;20035;-76
2021/10/28 16:53:57;;;;;;;15.38;4.45;;;19.00;47.70;;;;;;6141477;28;20039;-76
2021/10/28 16:57:00;;;;;;;12.05;5.07;;;18.90;48.00;;;;;;6141190;28;20042;-79
2021/10/28 17:00:04;;;;;;;13.18;4.80;;;18.90;48.30;;;;;;6149090;28;20059;-79
2021/10/28 17:03:05;;;;;;;17.63;5.15;;;18.80;48.50;;;;;;6194072;28;20038;-79
2021/10/28 17:06:06;;;;;;;15.70;5.20;;;18.80;48.90;;;;;;6195188;28;20045;-78
2021/10/28 17:09:08;;;;;;;15.57;6.72;;;18.70;49.00;;;;;;6206178;28;20066;-78
2021/10/28 17:12:09;;;;;;;11.15;5.07;;;18.70;49.10;;;;;;6194123;28;20038;-79
2021/10/28 17:15:10;;;;;;;13.00;5.72;;;18.70;49.30;;;;;;6192681;28;20107;-77
2021/10/28 17:18:10;;;;;;;27.33;10.38;;;18.70;49.40;;;;;;6185740;28;20034;-78
2021/10/28 17:21:11;;;;;;;18.75;7.53;;;18.60;49.60;;;;;;6193651;28;20042;-79
2021/10/28 17:25:19;;;;;;;19.08;6.53;;;18.60;49.80;;;;;;6191898;28;20038;-78
2021/10/28 17:27:48;;;;;;;12.10;5.00;;;18.50;49.90;;;;;;6186806;28;20491;-75
2021/10/28 17:30:50;;;;;;;26.50;6.18;;;18.50;49.90;;;;;;6192501;28;20105;-77
2021/10/28 17:33:51;;;;;;;8.38;4.15;;;18.50;49.90;;;;;;6181849;28;20466;-80
2021/10/28 17:36:53;;;;;;;15.23;4.38;;;18.40;49.90;;;;;;6200341;28;20045;-79
2021/10/28 17:39:54;;;;;;;24.70;7.88;;;18.40;49.90;;;;;;6189081;28;20065;-79
2021/10/28 17:42:56;;;;;;;11.80;4.80;;;18.30;49.80;;;;;;6178869;28;20034;-77
2021/10/28 17:45:58;;;;;;;18.30;5.00;;;18.30;49.90;;;;;;6177381;28;20038;-78
2021/10/28 17:49:00;;;;;;;14.48;6.13;;;18.30;50.10;;;;;;6170998;28;20109;-76
2021/10/28 17:52:03;;;;;;;25.23;7.40;;;18.30;50.20;;;;;;6172305;28;20097;-79
2021/10/28 17:55:07;;;;;;;13.88;5.53;;;18.20;50.50;;;;;;6193884;28;20128;-78
2021/10/28 17:58:09;;;;;;;11.77;5.55;;;18.20;50.80;;;;;;6190040;28;20042;-78
2021/10/28 18:01:11;;;;;;;25.45;9.15;;;18.20;50.90;;;;;;6185608;28;20050;-78
2021/10/28 18:04:12;;;;;;;30.52;11.00;;;18.20;51.20;;;;;;6199470;28;20038;-78
2021/10/28 18:07:13;;;;;;;17.10;7.05;;;18.20;51.30;;;;;;6191933;28;20125;-77
2021/10/28 18:10:15;;;;;;;16.13;5.88;;;18.10;51.50;;;;;;6181826;28;20058;-78
2021/10/28 18:13:18;;;;;;;33.05;13.05;;;18.10;51.50;;;;;;6178948;28;20098;-77
2021/10/28 18:16:20;;;;;;;20.92;8.73;;;18.10;51.50;;;;;;6155997;28;20042;-78
2021/10/28 18:19:23;;;;;;;60.83;21.08;;;18.10;51.70;;;;;;6179936;28;20116;-78
2021/10/28 18:22:24;;;;;;;38.20;15.18;;;18.10;51.90;;;;;;6182855;28;20405;-78
2021/10/28 18:25:25;;;;;;;22.92;11.02;;;18.00;51.90;;;;;;6192717;28;20352;-78
2021/10/28 18:28:26;;;;;;;20.65;8.48;;;17.90;51.90;;;;;;6176012;28;20057;-78
2021/10/28 18:31:28;;;;;;;24.98;8.45;;;17.90;52.00;;;;;;6192690;28;20039;-79
2021/10/28 18:34:29;;;;;;;14.45;7.03;;;17.80;52.10;;;;;;6189137;28;20038;-77
2021/10/28 18:37:30;;;;;;;18.83;6.47;;;17.70;52.30;;;;;;6199714;28;20338;-76
2021/10/28 18:40:31;;;;;;;17.08;6.80;;;17.70;52.40;;;;;;6188887;28;20050;-77
2021/10/28 18:43:32;;;;;;;13.57;6.30;;;17.60;52.60;;;;;;6189966;28;20471;-78
2021/10/28 18:46:34;;;;;;;16.33;5.38;;;17.60;52.70;;;;;;6187758;28;20042;-75
2021/10/28 18:49:35;;;;;;;23.35;6.35;;;17.60;52.90;;;;;;6168610;28;20201;-78
2021/10/28 18:52:36;;;;;;;16.45;7.28;;;17.50;52.80;;;;;;6188776;28;20053;-78
2021/10/28 18:55:39;;;;;;;17.02;7.32;;;17.50;52.90;;;;;;6204135;28;20069;-79
2021/10/28 18:58:40;;;;;;;19.88;7.43;;;17.50;53.10;;;;;;6189376;28;20436;-79
2021/10/28 19:01:41;;;;;;;18.15;7.22;;;17.40;53.20;;;;;;6177308;28;20101;-74
2021/10/28 19:04:43;;;;;;;15.18;6.25;;;17.40;53.40;;;;;;6193216;28;20104;-77
2021/10/28 19:07:48;;;;;;;19.67;6.88;;;17.40;53.40;;;;;;6188489;28;20353;-79
2021/10/28 19:10:50;;;;;;;13.80;6.20;;;17.30;53.40;;;;;;6172096;28;20095;-77
2021/10/28 19:13:51;;;;;;;17.92;5.85;;;17.30;53.60;;;;;;6186724;28;20337;-77
2021/10/28 19:16:53;;;;;;;22.00;6.57;;;17.30;53.70;;;;;;6190552;28;20345;-77
2021/10/28 19:19:54;;;;;;;17.60;5.65;;;17.20;53.90;;;;;;6177712;28;20030;-76
2021/10/28 19:22:56;;;;;;;22.35;8.73;;;17.20;53.90;;;;;;6190815;28;20034;-77
2021/10/28 19:25:58;;;;;;;14.45;6.53;;;17.20;54.00;;;;;;6176162;28;20320;-76
2021/10/28 19:29:00;;;;;;;18.65;6.35;;;17.10;54.10;;;;;;6191822;28;20137;-77
2021/10/28 19:32:10;;;;;;;14.70;5.85;;;17.10;54.20;;;;;;6190658;28;20109;-76
2021/10/28 19:35:11;;;;;;;13.77;5.60;;;17.00;54.20;;;;;;6193413;28;20316;-76
2021/10/28 19:47:52;;;;;;;20.23;7.40;;;16.90;54.40;;;;;;6191536;28;20052;-77
2021/10/28 19:50:53;;;;;;;15.20;6.63;;;16.90;54.50;;;;;;6188878;28;20450;-77
2021/10/28 19:53:55;;;;;;;20.80;6.82;;;16.90;54.60;;;;;;6194943;28;20054;-77
2021/10/28 19:56:56;;;;;;;15.75;7.15;;;16.80;54.70;;;;;;6191102;28;20550;-77
2021/10/28 20:00:05;;;;;;;16.80;7.05;;;16.80;54.90;;;;;;6196045;28;20030;-78
2021/10/28 20:22:41;;;;;;;20.52;6.00;;;16.40;55.80;;;;;;6199797;28;20097;-77
2021/10/28 20:25:43;;;;;;;13.70;6.07;;;16.30;55.80;;;;;;6200950;28;20081;-78
2021/10/28 20:28:47;;;;;;;18.35;6.03;;;16.30;55.90;;;;;;6200664;28;20049;-77
2021/10/28 20:31:58;;;;;;;19.42;6.10;;;16.30;56.00;;;;;;6199374;28;20034;-76
2021/10/28 20:38:23;;;;;;;19.30;6.95;;;16.20;56.00;;;;;;6173856;28;20050;-77
2021/10/28 20:41:25;;;;;;;15.77;6.63;;;16.20;56.20;;;;;;6158558;28;20038;-79
2021/10/28 20:44:26;;;;;;;14.75;5.65;;;16.20;56.30;;;;;;6175144;28;20364;-78
2021/10/28 20:47:27;;;;;;;11.35;5.00;;;16.10;56.20;;;;;;6174272;28;20058;-77
2021/10/28 20:50:29;;;;;;;14.80;6.22;;;16.10;56.30;;;;;;6174400;28;20070;-77
2021/10/28 20:53:31;;;;;;;17.90;5.85;;;16.10;56.40;;;;;;6157023;28;20126;-76
2021/10/28 20:56:32;;;;;;;12.63;5.53;;;16.00;56.50;;;;;;6173272;28;20490;-78
2021/10/28 20:59:33;;;;;;;14.43;6.28;;;15.90;56.60;;;;;;6173655;28;20532;-78
2021/10/28 21:02:36;;;;;;;21.35;5.72;;;15.90;56.70;;;;;;6157618;28;20053;-78
2021/10/28 21:05:36;;;;;;;14.52;5.35;;;15.90;56.80;;;;;;6173966;28;20066;-76
2021/10/28 21:08:39;;;;;;;9.82;4.97;;;15.80;56.80;;;;;;6173799;28;20054;-77
2021/10/28 21:11:45;;;;;;;14.07;5.78;;;15.80;57.00;;;;;;6173435;28;20078;-77
2021/10/28 21:14:46;;;;;;;13.85;5.25;;;15.70;57.00;;;;;;6161554;28;20425;-76
2021/10/28 21:17:47;;;;;;;10.02;4.80;;;15.70;57.10;;;;;;6195798;28;20043;-77
2021/10/28 21:20:49;;;;;;;14.88;4.53;;;15.60;57.10;;;;;;6201842;28;20057;-77
2021/10/28 21:23:50;;;;;;;12.93;4.88;;;15.70;57.20;;;;;;6199768;28;20113;-77
2021/10/28 21:26:51;;;;;;;14.68;5.97;;;15.60;57.20;;;;;;6199875;28;20034;-77
2021/10/28 21:29:52;;;;;;;13.70;5.50;;;15.60;57.30;;;;;;6199479;28;20459;-77
2021/10/28 21:32:53;;;;;;;8.82;5.13;;;15.50;57.30;;;;;;6200014;28;20042;-77
2021/10/28 21:35:54;;;;;;;10.15;4.70;;;15.50;57.30;;;;;;6197572;28;20108;-78
2021/10/28 21:38:55;;;;;;;10.52;4.70;;;15.50;57.30;;;;;;6192739;28;20046;-77
2021/10/28 21:41:58;;;;;;;14.73;5.28;;;15.50;57.50;;;;;;6197878;28;20069;-76
2021/10/28 21:44:59;;;;;;;10.77;4.90;;;15.40;57.60;;;;;;6198803;28;20052;-76
2021/10/28 21:48:01;;;;;;;11.07;4.63;;;15.30;57.80;;;;;;6198790;28;20037;-77
2021/10/28 21:51:04;;;;;;;10.27;5.32;;;15.30;57.90;;;;;;6197037;28;20038;-76
2021/10/28 21:54:09;;;;;;;11.30;5.20;;;15.20;58.10;;;;;;6181962;28;20065;-76
2021/10/28 22:24:10;;;;;;;12.68;6.10;;;14.90;58.60;;;;;;6092115;29;20028;-77
2021/10/28 22:27:11;;;;;;;14.45;5.22;;;14.90;58.60;;;;;;6082534;29;20405;-78
2021/10/28 22:30:13;;;;;;;10.27;5.60;;;14.90;58.50;;;;;;6090558;29;20036;-77
2021/10/28 22:33:14;;;;;;;11.05;5.30;;;14.90;58.50;;;;;;6094711;29;20511;-74
2021/10/28 22:36:23;;;;;;;10.82;5.22;;;14.90;58.40;;;;;;6077059;29;20036;-73
2021/10/28 22:39:46;;;;;;;8.95;5.13;;;14.90;58.40;;;;;;6081168;29;20062;-73
2021/10/28 22:42:46;;;;;;;14.65;5.68;;;15.00;58.40;;;;;;6086283;28;20048;-73
2021/10/28 22:45:47;;;;;;;14.55;5.28;;;15.00;58.30;;;;;;6179355;28;20062;-73
2021/10/28 22:48:48;;;;;;;16.38;5.22;;;15.00;58.30;;;;;;6196128;28;20117;-74
2021/10/28 22:51:49;;;;;;;12.65;5.45;;;14.90;58.30;;;;;;6195514;28;20039;-74
2021/10/28 22:55:05;;;;;;;17.10;5.70;;;14.90;58.30;;;;;;6195949;28;20039;-74
2021/10/28 22:58:25;;;;;;;18.10;5.72;;;14.90;58.30;;;;;;6194451;28;20380;-74
2021/10/28 23:01:33;;;;;;;14.57;6.78;;;14.90;58.30;;;;;;6194697;28;20034;-74
2021/10/28 23:11:33;;;;;;;12.45;5.28;;;14.80;58.40;;;;;;6204418;28;19913;-74
2021/10/28 23:14:53;;;;;;;13.57;5.25;;;14.80;58.40;;;;;;6193014;28;20053;-74
2021/10/28 23:21:14;;;;;;;11.43;4.95;;;14.70;58.60;;;;;;6195744;28;20030;-74
2021/10/28 23:24:15;;;;;;;15.27;5.72;;;14.70;58.70;;;;;;6196037;28;20375;-75
2021/10/28 23:27:17;;;;;;;10.50;5.05;;;14.60;58.70;;;;;;6195064;28;20062;-74
2021/10/28 23:30:18;;;;;;;9.63;4.47;;;14.60;58.80;;;;;;6196680;28;20038;-73
2021/10/28 23:33:19;;;;;;;10.25;5.25;;;14.50;58.80;;;;;;6197385;28;20359;-74
2021/10/28 23:36:20;;;;;;;13.57;6.00;;;14.50;59.00;;;;;;6196485;28;20038;-74
2021/10/28 23:39:21;;;;;;;16.40;5.95;;;14.50;58.90;;;;;;6196455;28;20476;-74
2021/10/28 23:42:22;;;;;;;11.18;5.43;;;14.40;59.00;;;;;;6198784;28;20031;-74
2021/10/28 23:45:23;;;;;;;12.77;5.90;;;14.40;59.10;;;;;;6199708;28;20379;-73
2021/10/28 23:48:24;;;;;;;12.82;5.30;;;14.40;59.20;;;;;;6199446;28;20034;-74
2021/10/28 23:51:25;;;;;;;11.02;5.20;;;14.30;59.30;;;;;;6199145;28;20057;-73
2021/10/28 23:54:26;;;;;;;13.63;5.35;;;14.30;59.30;;;;;;6181295;28;20038;-75
2021/10/28 23:57:27;;;;;;;10.82;5.47;;;14.30;59.30;;;;;;6207467;28;20044;-74
